首页
METAR-TAF:

METAR-TAF

机场 :

雅库茨克, 俄罗斯

纬度: 62-01N, 经度: 129-43E, 海拔: 103米

当前天气观测

该预报发布于45分钟前的18:00 UTC
风速4节,风向南转南东
温度 12°C
湿度 71%
气压 1009 hPa
能见度10公里或以上
散云层高于5000英尺, 积雨云.

METAR: UEEE 041800Z 15002MPS 9999 SCT050CB 12/07 Q1009 R23L/09//60 NOSIG RMK QFE748

时间: 03:45 (18:45 UTC)

预报

该预报发布于1小时和45分钟前的17:00 UTC
预报有效从04日的 18点(UTC)到 05日的 24点(UTC)
风速6节,风向南转西南,有时为16节阵风
能见度10公里或以上
散云层高于3000英尺, 积雨云.
多云层高于7000英尺

TAF: UEEE 041700Z 0418/0524 20003G08MPS 9999 SCT030CB BKN070

超过4000个机场的气象观测和天气预报(METAR&TAF报告)。

可查询的气象台以黄色和红色小点在地图上表示。

将鼠标移到小点上方,可查看气象台名称。

然后点击查看天气观测和预报。

如需切换地图:点击带黑十字的绿色按钮放大地图;点击带横线的绿色按钮缩小地图;或者点击绿色箭头查看邻近地区的地图。


METAR-TAF: